Time;durP1;ratioP1;P1;durP2;ratioP2;P2;SDS_P1;SDS_P2;PMS_P1;PMS_P2;Temp;Humidity;BMP_temperature;BMP_pressure;BME280_temperature;BME280_humidity;BME280_pressure;Samples;Min_cycle;Max_cycle;Signal;HPM_P1;HPM_P2
2022/03/07 00:01:05;;;;;;;71.77;31.90;;;;;;;3.24;100.00;99473.56;5094393;28;20429;-82
2022/03/07 00:03:31;;;;;;;71.33;31.67;;;;;;;3.31;100.00;99464.91;5094263;28;20475;-82
2022/03/07 00:05:58;;;;;;;73.40;33.03;;;;;;;3.33;100.00;99468.22;5094461;28;20429;-82
2022/03/07 00:08:26;;;;;;;68.37;32.13;;;;;;;3.33;100.00;99472.63;5094197;28;20473;-82
2022/03/07 00:10:53;;;;;;;75.87;32.87;;;;;;;3.33;100.00;99468.22;5093967;28;20627;-83
2022/03/07 00:13:21;;;;;;;67.63;30.03;;;;;;;3.19;100.00;99465.31;5093979;28;20492;-82
2022/03/07 00:15:48;;;;;;;60.03;28.50;;;;;;;3.14;100.00;99459.69;5094116;28;20952;-82
2022/03/07 00:18:14;;;;;;;60.20;27.97;;;;;;;3.00;100.00;99461.03;5093806;28;20510;-83
2022/03/07 00:20:41;;;;;;;58.97;27.77;;;;;;;3.05;100.00;99453.53;5093802;28;20503;-82
2022/03/07 00:23:11;;;;;;;56.57;28.40;;;;;;;3.03;100.00;99455.47;5093732;28;20191;-82
2022/03/07 00:25:39;;;;;;;54.27;27.60;;;;;;;2.99;100.00;99459.34;5093671;28;20886;-81
2022/03/07 00:28:06;;;;;;;49.43;26.00;;;;;;;2.97;100.00;99460.47;5093806;28;20469;-82
2022/03/07 00:30:33;;;;;;;56.87;27.63;;;;;;;2.91;100.00;99451.44;5093842;28;20256;-82
2022/03/07 00:32:59;;;;;;;60.60;29.40;;;;;;;2.94;100.00;99455.56;5093797;28;20195;-82
2022/03/07 00:35:26;;;;;;;59.90;28.83;;;;;;;2.94;100.00;99445.88;5093719;28;20441;-82
2022/03/07 00:37:53;;;;;;;60.50;29.60;;;;;;;2.93;100.00;99444.22;5093859;28;20441;-82
2022/03/07 00:40:20;;;;;;;60.57;29.47;;;;;;;2.86;100.00;99444.97;5093357;28;20441;-82
2022/03/07 00:42:48;;;;;;;61.17;29.70;;;;;;;2.91;100.00;99446.19;5093643;28;20494;-80
2022/03/07 00:45:15;;;;;;;100.27;33.37;;;;;;;2.89;100.00;99442.88;5093239;28;20863;-81
2022/03/07 00:47:42;;;;;;;62.33;31.57;;;;;;;2.86;100.00;99442.34;5093750;28;20874;-80
2022/03/07 00:50:09;;;;;;;65.70;32.03;;;;;;;2.78;100.00;99440.47;5093455;28;20437;-81
2022/03/07 00:52:36;;;;;;;66.40;33.03;;;;;;;2.87;100.00;99446.63;5093791;28;20441;-79
2022/03/07 00:55:03;;;;;;;71.00;32.97;;;;;;;2.89;100.00;99447.28;5093442;28;20437;-80
2022/03/07 00:57:30;;;;;;;75.90;34.23;;;;;;;2.95;100.00;99447.53;5093107;28;20859;-79
2022/03/07 00:59:58;;;;;;;65.70;30.97;;;;;;;2.87;100.00;99444.00;5093853;28;20445;-79
2022/03/07 01:02:25;;;;;;;69.27;31.63;;;;;;;2.74;100.00;99433.06;5092945;28;20936;-79
2022/03/07 01:04:55;;;;;;;62.10;30.87;;;;;;;2.73;100.00;99450.56;5093313;28;20284;-78
2022/03/07 01:07:21;;;;;;;63.77;31.43;;;;;;;2.69;100.00;99443.97;5093420;28;20443;-79
2022/03/07 01:09:48;;;;;;;64.97;31.63;;;;;;;2.65;100.00;99442.63;5092978;28;20534;-79
2022/03/07 01:12:15;;;;;;;69.37;31.87;;;;;;;2.68;100.00;99438.88;5093212;28;20428;-79
2022/03/07 01:14:41;;;;;;;61.30;30.70;;;;;;;2.61;100.00;99438.63;5093527;28;20445;-79
2022/03/07 01:17:10;;;;;;;66.80;32.63;;;;;;;2.58;100.00;99448.59;5093027;28;20933;-81
2022/03/07 01:19:36;;;;;;;71.70;31.70;;;;;;;2.50;100.00;99441.47;5093019;28;20433;-81
2022/03/07 01:22:04;;;;;;;54.97;29.00;;;;;;;2.54;100.00;99447.25;5092646;28;20822;-81
2022/03/07 01:24:30;;;;;;;61.60;28.77;;;;;;;2.41;100.00;99442.34;5092568;28;20949;-81
2022/03/07 01:26:57;;;;;;;73.03;31.03;;;;;;;2.47;100.00;99451.41;5093079;28;20446;-81
2022/03/07 01:29:24;;;;;;;60.83;29.07;;;;;;;2.38;100.00;99447.06;5092411;28;20521;-81
2022/03/07 01:31:51;;;;;;;61.90;30.13;;;;;;;2.37;100.00;99440.97;5093573;28;20433;-82
2022/03/07 01:34:19;;;;;;;58.97;28.90;;;;;;;2.35;100.00;99445.56;5092441;28;20429;-81
2022/03/07 01:36:45;;;;;;;56.40;29.50;;;;;;;2.42;100.00;99437.94;5093425;28;20425;-81
2022/03/07 01:39:12;;;;;;;51.20;26.40;;;;;;;2.53;100.00;99438.53;5092610;28;20499;-81
2022/03/07 01:41:39;;;;;;;51.70;26.53;;;;;;;2.68;100.00;99429.22;5093451;28;20444;-81
2022/03/07 01:44:16;;;;;;;50.87;27.07;;;;;;;2.73;100.00;99437.47;5093578;28;20433;-80
2022/03/07 01:46:43;;;;;;;41.07;25.03;;;;;;;2.70;100.00;99427.25;5092489;28;20463;-80
2022/03/07 01:49:09;;;;;;;45.13;24.33;;;;;;;2.81;100.00;99429.69;5092442;28;20553;-79
2022/03/07 01:51:38;;;;;;;47.83;27.50;;;;;;;2.84;100.00;99428.56;5092728;28;20437;-80
2022/03/07 01:54:05;;;;;;;44.63;27.20;;;;;;;2.96;100.00;99428.19;5092496;28;20827;-80
2022/03/07 01:56:32;;;;;;;45.07;26.57;;;;;;;3.11;100.00;99426.69;5092238;28;20441;-80
2022/03/07 01:58:59;;;;;;;44.93;25.83;;;;;;;3.21;100.00;99422.19;5092389;28;20437;-80
2022/03/07 02:01:25;;;;;;;48.93;26.47;;;;;;;3.30;100.00;99429.16;5092960;28;20437;-80
2022/03/07 02:03:52;;;;;;;43.83;24.57;;;;;;;3.40;100.00;99427.28;5092661;28;20465;-79
2022/03/07 02:06:19;;;;;;;40.80;25.30;;;;;;;3.40;100.00;99423.81;5092877;28;20491;-79
2022/03/07 02:08:48;;;;;;;42.90;23.60;;;;;;;3.43;100.00;99426.94;5093161;28;20551;-80
2022/03/07 02:11:16;;;;;;;43.47;24.30;;;;;;;3.36;100.00;99425.94;5092144;28;20437;-79
2022/03/07 02:13:42;;;;;;;43.50;25.30;;;;;;;3.41;100.00;99428.09;5092516;28;20495;-79
2022/03/07 02:16:11;;;;;;;42.47;23.83;;;;;;;3.37;100.00;99430.19;5092156;28;20459;-80
2022/03/07 02:18:38;;;;;;;46.70;25.73;;;;;;;3.43;100.00;99421.69;5093142;28;20469;-80
2022/03/07 02:21:09;;;;;;;43.87;24.17;;;;;;;3.48;100.00;99429.94;5092536;28;20786;-81
2022/03/07 02:23:38;;;;;;;38.17;21.97;;;;;;;3.36;100.00;99428.56;5092893;28;20434;-81
2022/03/07 02:26:09;;;;;;;43.10;24.90;;;;;;;3.27;100.00;99421.56;5092940;28;20549;-81
2022/03/07 02:28:37;;;;;;;45.63;25.57;;;;;;;3.34;100.00;99433.13;5092415;28;20475;-81
2022/03/07 02:31:03;;;;;;;43.73;24.07;;;;;;;3.39;100.00;99424.81;5092360;28;20441;-82
2022/03/07 02:33:30;;;;;;;42.70;24.23;;;;;;;3.28;100.00;99432.91;5091899;28;20498;-82
2022/03/07 02:35:57;;;;;;;46.07;24.57;;;;;;;3.19;100.00;99434.63;5091724;28;20499;-81
2022/03/07 02:38:23;;;;;;;45.20;25.13;;;;;;;3.20;100.00;99431.03;5092874;28;20437;-82
2022/03/07 02:40:51;;;;;;;46.13;25.57;;;;;;;3.22;100.00;99434.34;5092015;28;20440;-80
2022/03/07 02:43:19;;;;;;;44.93;24.97;;;;;;;3.29;100.00;99435.38;5092807;28;20441;-80
2022/03/07 02:45:46;;;;;;;46.00;26.03;;;;;;;3.22;100.00;99434.34;5091684;28;20932;-81
2022/03/07 02:48:13;;;;;;;50.27;26.40;;;;;;;3.17;100.00;99441.84;5095898;28;20490;-79
2022/03/07 02:50:40;;;;;;;48.73;26.93;;;;;;;3.07;100.00;99430.56;5095900;28;20491;-79
2022/03/07 02:53:07;;;;;;;46.63;24.97;;;;;;;3.14;100.00;99436.88;5095838;28;20448;-79
2022/03/07 02:55:34;;;;;;;49.93;25.13;;;;;;;3.15;100.00;99430.66;5095547;28;20445;-80
2022/03/07 02:58:02;;;;;;;47.27;24.00;;;;;;;3.10;100.00;99430.28;5095686;28;20490;-80
2022/03/07 03:00:29;;;;;;;50.00;25.30;;;;;;;3.19;100.00;99434.63;5095325;28;20819;-80
2022/03/07 03:02:55;;;;;;;42.43;23.63;;;;;;;3.20;100.00;99435.47;5096406;28;20509;-80
2022/03/07 03:05:23;;;;;;;42.00;23.70;;;;;;;3.19;100.00;99437.25;5096852;28;20515;-80
2022/03/07 03:07:51;;;;;;;49.43;23.80;;;;;;;3.22;100.00;99444.81;5095186;28;20445;-81
2022/03/07 03:10:18;;;;;;;47.30;24.53;;;;;;;3.20;100.00;99445.97;5095052;28;21060;-80
2022/03/07 03:12:45;;;;;;;47.67;22.07;;;;;;;3.10;100.00;99451.28;5095090;28;20506;-79
2022/03/07 03:15:14;;;;;;;45.30;24.37;;;;;;;3.08;100.00;99444.53;5095270;28;20506;-80
2022/03/07 03:17:41;;;;;;;46.53;22.10;;;;;;;3.03;100.00;99444.97;5095569;28;20928;-80
2022/03/07 03:20:10;;;;;;;55.20;24.03;;;;;;;2.99;100.00;99438.38;5095515;28;20447;-80
2022/03/07 03:22:37;;;;;;;40.50;22.00;;;;;;;2.92;100.00;99437.34;5095003;28;20971;-81
2022/03/07 03:25:05;;;;;;;42.70;24.90;;;;;;;2.92;100.00;99444.38;5095173;28;20433;-80
2022/03/07 03:27:32;;;;;;;41.53;22.33;;;;;;;2.82;100.00;99441.81;5094916;28;20720;-81
2022/03/07 03:29:59;;;;;;;44.40;23.33;;;;;;;2.93;100.00;99441.59;5095026;28;20472;-80
2022/03/07 03:32:29;;;;;;;45.30;22.50;;;;;;;2.82;100.00;99439.19;5095427;28;20811;-81
2022/03/07 03:34:57;;;;;;;35.27;21.00;;;;;;;2.98;100.00;99441.97;5095863;28;20421;-82
2022/03/07 03:37:24;;;;;;;39.90;23.10;;;;;;;3.00;100.00;99440.03;5094735;28;20437;-81
2022/03/07 03:39:51;;;;;;;39.17;20.63;;;;;;;3.13;100.00;99444.91;5094956;28;20455;-82
2022/03/07 03:42:19;;;;;;;35.53;21.17;;;;;;;3.19;100.00;99450.38;5094904;28;20959;-82
2022/03/07 03:44:46;;;;;;;36.07;20.73;;;;;;;3.27;100.00;99442.56;5095430;28;20437;-82
2022/03/07 03:47:13;;;;;;;35.90;20.53;;;;;;;3.34;100.00;99446.25;5094430;28;20467;-82
2022/03/07 03:49:41;;;;;;;34.10;19.80;;;;;;;3.28;100.00;99446.88;5095087;28;20219;-82
2022/03/07 03:52:08;;;;;;;31.13;19.47;;;;;;;3.31;100.00;99445.72;5094470;28;20937;-82
2022/03/07 03:54:35;;;;;;;33.43;20.40;;;;;;;3.38;100.00;99455.47;5094476;28;20822;-82
2022/03/07 03:57:02;;;;;;;30.30;18.80;;;;;;;3.47;100.00;99446.66;5094273;28;20854;-82
2022/03/07 03:59:29;;;;;;;34.30;20.67;;;;;;;3.49;100.00;99442.13;5094702;28;20441;-82
2022/03/07 04:01:55;;;;;;;32.20;18.10;;;;;;;3.53;100.00;99440.81;5094402;28;20499;-82
2022/03/07 04:04:22;;;;;;;31.00;19.10;;;;;;;3.57;100.00;99439.53;5094719;28;20324;-82
2022/03/07 04:06:50;;;;;;;40.00;25.67;;;;;;;3.61;100.00;99445.31;5093951;28;20248;-82
2022/03/07 04:09:17;;;;;;;34.00;21.97;;;;;;;3.65;100.00;99441.41;5094387;28;20996;-82
2022/03/07 04:11:44;;;;;;;38.13;23.43;;;;;;;3.76;100.00;99438.53;5093941;28;20654;-82
2022/03/07 04:14:12;;;;;;;27.13;19.37;;;;;;;3.81;100.00;99437.09;5094576;28;20433;-82
2022/03/07 04:16:38;;;;;;;31.63;19.43;;;;;;;3.84;100.00;99434.13;5094550;28;20221;-82
2022/03/07 04:19:06;;;;;;;26.63;17.83;;;;;;;3.88;100.00;99443.34;5093781;28;20657;-82
2022/03/07 04:21:33;;;;;;;25.10;17.97;;;;;;;3.92;100.00;99443.88;5093662;28;20739;-83
2022/03/07 04:24:01;;;;;;;27.13;18.17;;;;;;;4.01;100.00;99443.75;5093670;28;20194;-82
2022/03/07 04:26:28;;;;;;;24.57;17.87;;;;;;;4.09;100.00;99446.44;5094581;28;20436;-81
2022/03/07 04:28:55;;;;;;;26.30;17.50;;;;;;;4.16;100.00;99454.50;5093743;28;20197;-81
2022/03/07 04:31:22;;;;;;;26.90;17.47;;;;;;;4.18;100.00;99440.25;5094655;28;20191;-82
2022/03/07 04:33:49;;;;;;;24.73;17.20;;;;;;;4.21;100.00;99429.41;5094244;28;20194;-82
2022/03/07 04:36:18;;;;;;;23.77;16.77;;;;;;;4.25;100.00;99438.63;5095304;28;20738;-81
2022/03/07 04:38:45;;;;;;;23.17;16.90;;;;;;;4.27;100.00;99423.53;5094201;28;20187;-82
2022/03/07 04:41:13;;;;;;;26.83;16.73;;;;;;;4.32;99.55;99425.66;5093952;28;20236;-82
2022/03/07 04:43:40;;;;;;;24.87;18.00;;;;;;;4.32;99.67;99423.88;5093643;28;20195;-82
2022/03/07 04:46:08;;;;;;;24.70;17.13;;;;;;;4.29;99.12;99421.56;5093482;28;20187;-83
2022/03/07 04:48:35;;;;;;;24.20;18.00;;;;;;;4.24;99.41;99413.31;5093244;28;20195;-82
2022/03/07 04:51:02;;;;;;;22.63;16.00;;;;;;;4.21;99.60;99416.25;5093431;28;20222;-83
2022/03/07 04:53:29;;;;;;;26.50;16.93;;;;;;;4.27;99.96;99417.44;5093098;28;20195;-82
2022/03/07 04:55:55;;;;;;;22.27;16.97;;;;;;;4.34;99.31;99416.63;5094504;28;20191;-83
2022/03/07 04:58:24;;;;;;;23.13;16.03;;;;;;;4.39;98.95;99422.28;5092949;28;20237;-82
2022/03/07 05:00:52;;;;;;;29.27;19.13;;;;;;;4.43;99.08;99410.44;5093955;28;20195;-82
2022/03/07 05:03:19;;;;;;;25.90;17.73;;;;;;;4.40;98.80;99408.13;5093563;28;20187;-81
2022/03/07 05:05:45;;;;;;;29.77;17.90;;;;;;;4.43;98.86;99417.50;5093314;28;20179;-83
2022/03/07 05:08:12;;;;;;;25.30;18.57;;;;;;;4.47;98.20;99419.66;5093126;28;20292;-81
2022/03/07 05:10:39;;;;;;;30.50;18.87;;;;;;;4.53;98.39;99424.28;5092719;28;20280;-81
2022/03/07 05:13:05;;;;;;;28.63;19.77;;;;;;;4.54;98.39;99420.66;5093026;28;20195;-79
2022/03/07 05:15:34;;;;;;;31.90;19.50;;;;;;;4.51;97.30;99431.53;5092823;28;20727;-82
2022/03/07 05:18:00;;;;;;;35.73;21.90;;;;;;;4.51;98.34;99436.78;5093267;28;20734;-83
2022/03/07 05:20:27;;;;;;;32.93;21.27;;;;;;;4.45;98.01;99426.88;5092625;28;20727;-76
2022/03/07 05:22:54;;;;;;;56.00;29.47;;;;;;;4.49;98.33;99428.22;5092413;28;20196;-70
2022/03/07 05:25:22;;;;;;;52.93;28.97;;;;;;;4.54;98.25;99427.75;5092592;28;20244;-77
2022/03/07 05:27:49;;;;;;;56.10;28.97;;;;;;;4.59;97.83;99436.81;5093635;28;20187;-79
2022/03/07 05:30:18;;;;;;;51.97;29.03;;;;;;;4.55;98.05;99421.50;5092836;28;20602;-80
2022/03/07 05:32:47;;;;;;;46.93;26.60;;;;;;;4.61;96.83;99437.47;5092418;28;20196;-74
2022/03/07 05:35:14;;;;;;;31.27;19.60;;;;;;;4.55;97.46;99443.38;5092478;28;20195;-77
2022/03/07 05:37:41;;;;;;;29.50;18.93;;;;;;;4.55;97.73;99443.38;5092728;28;20199;-78
2022/03/07 05:40:10;;;;;;;36.33;20.80;;;;;;;4.63;97.39;99435.50;5092846;28;20198;-80
2022/03/07 05:42:38;;;;;;;35.63;21.33;;;;;;;4.66;97.97;99437.00;5093344;28;20265;-74
2022/03/07 05:45:08;;;;;;;34.97;21.03;;;;;;;4.67;97.58;99444.72;5092514;28;20240;-76
2022/03/07 05:47:35;;;;;;;27.07;18.87;;;;;;;4.60;97.42;99441.06;5092851;28;20240;-77
2022/03/07 05:50:03;;;;;;;31.10;19.60;;;;;;;4.60;96.86;99440.25;5093023;28;20735;-78
2022/03/07 05:52:30;;;;;;;31.57;19.30;;;;;;;4.64;96.89;99434.50;5092659;28;20248;-76
2022/03/07 05:54:57;;;;;;;33.43;20.87;;;;;;;4.69;96.95;99419.06;5092898;28;20192;-81
2022/03/07 05:57:24;;;;;;;44.77;23.37;;;;;;;4.78;96.72;99422.56;5092687;28;20195;-75
2022/03/07 05:59:51;;;;;;;37.03;21.07;;;;;;;4.83;96.00;99431.59;5092004;28;20682;-77
2022/03/07 06:02:17;;;;;;;37.40;21.13;;;;;;;4.84;96.20;99438.53;5092278;28;20254;-75
2022/03/07 06:04:44;;;;;;;33.77;20.53;;;;;;;4.72;95.61;99437.16;5092552;28;20759;-75
2022/03/07 06:07:12;;;;;;;54.63;27.10;;;;;;;4.69;95.10;99444.53;5092126;28;20675;-75
2022/03/07 06:09:39;;;;;;;37.20;23.87;;;;;;;4.73;95.52;99445.88;5091869;28;20214;-75
2022/03/07 06:12:06;;;;;;;34.67;21.80;;;;;;;4.83;96.08;99451.84;5091900;28;20195;-73
2022/03/07 06:14:33;;;;;;;35.43;22.83;;;;;;;4.90;96.55;99443.13;5092462;28;20253;-73
2022/03/07 06:17:00;;;;;;;37.57;23.47;;;;;;;4.97;95.79;99446.75;5091896;28;20252;-77
2022/03/07 06:19:26;;;;;;;38.53;23.10;;;;;;;5.04;95.51;99449.56;5092205;28;20195;-78
2022/03/07 06:21:53;;;;;;;38.80;24.10;;;;;;;5.10;95.07;99449.75;5095492;28;20256;-73
2022/03/07 06:24:21;;;;;;;33.60;21.73;;;;;;;5.13;94.16;99438.91;5096379;28;20666;-76
2022/03/07 06:26:48;;;;;;;34.43;21.93;;;;;;;5.16;94.07;99446.44;5096296;28;20654;-71
2022/03/07 06:29:15;;;;;;;36.03;22.47;;;;;;;5.33;95.11;99444.66;5096200;28;20199;-74
2022/03/07 06:31:41;;;;;;;32.43;21.80;;;;;;;5.44;93.71;99447.78;5089989;28;20280;-71
2022/03/07 06:34:08;;;;;;;32.37;20.40;;;;;;;5.47;92.00;99447.47;5094988;28;20655;-76
2022/03/07 06:36:35;;;;;;;31.73;20.57;;;;;;;5.53;91.91;99445.97;5096248;28;20255;-76
2022/03/07 06:39:01;;;;;;;30.43;20.57;;;;;;;5.59;91.94;99443.50;5095415;28;20196;-76
2022/03/07 06:41:29;;;;;;;31.30;19.60;;;;;;;5.64;91.40;99449.09;5096243;28;20663;-76
2022/03/07 06:43:56;;;;;;;33.87;19.70;;;;;;;5.66;90.96;99447.13;5095075;28;20226;-75
2022/03/07 06:46:23;;;;;;;44.60;27.73;;;;;;;5.69;90.25;99443.34;5093996;28;20563;-74
2022/03/07 06:48:50;;;;;;;46.57;29.70;;;;;;;5.51;90.02;99442.69;5092165;28;20260;-80
2022/03/07 06:51:18;;;;;;;38.23;27.13;;;;;;;5.57;91.34;99442.84;5095085;28;20781;-78
2022/03/07 06:53:45;;;;;;;45.17;26.47;;;;;;;5.68;91.54;99431.97;5095819;28;20620;-81
2022/03/07 06:56:11;;;;;;;37.50;25.30;;;;;;;5.77;91.47;99432.78;5091632;28;20662;-83
2022/03/07 06:58:41;;;;;;;34.10;24.33;;;;;;;5.84;90.73;99443.53;5095742;28;20196;-83
2022/03/07 07:01:07;;;;;;;34.37;23.43;;;;;;;5.82;89.58;99435.78;5095411;28;20256;-79
2022/03/07 07:03:34;;;;;;;35.07;24.10;;;;;;;5.85;90.07;99440.72;5093666;28;20223;-78
2022/03/07 07:06:01;;;;;;;39.50;25.33;;;;;;;5.89;90.22;99446.47;5094400;28;20712;-77
2022/03/07 07:08:27;;;;;;;43.07;26.43;;;;;;;5.96;90.28;99442.19;5094941;28;20739;-77
2022/03/07 07:10:54;;;;;;;38.80;25.60;;;;;;;6.01;89.64;99439.84;5095108;28;20223;-78
2022/03/07 07:13:21;;;;;;;36.20;25.03;;;;;;;6.01;89.10;99445.13;5095163;28;20253;-79
2022/03/07 07:15:55;;;;;;;43.17;26.33;;;;;;;6.05;89.79;99454.34;5095078;28;20199;-78
2022/03/07 07:18:22;;;;;;;48.73;28.20;;;;;;;5.99;88.40;99442.66;5095536;28;20191;-80
2022/03/07 07:20:50;;;;;;;49.00;29.00;;;;;;;6.04;88.39;99456.16;5093751;28;20201;-77
2022/03/07 07:23:17;;;;;;;49.03;30.57;;;;;;;5.72;88.22;99451.72;5094031;28;20192;-78
2022/03/07 07:25:44;;;;;;;75.70;41.20;;;;;;;5.76;89.14;99447.78;5094664;28;20191;-78
2022/03/07 07:28:11;;;;;;;56.30;31.70;;;;;;;5.88;89.79;99450.09;5095059;28;20199;-76
2022/03/07 07:30:37;;;;;;;59.63;32.00;;;;;;;6.02;90.04;99442.34;5095233;28;20218;-78
2022/03/07 07:33:05;;;;;;;62.77;36.23;;;;;;;6.05;89.12;99441.16;5093783;28;20620;-79
2022/03/07 07:35:34;;;;;;;64.63;36.37;;;;;;;5.81;88.45;99443.84;5094374;28;20192;-76
2022/03/07 07:38:01;;;;;;;76.20;38.90;;;;;;;5.62;89.52;99435.28;5094805;28;20274;-77
2022/03/07 07:40:27;;;;;;;89.67;44.87;;;;;;;5.37;90.73;99431.00;5091016;28;20244;-82
2022/03/07 07:42:54;;;;;;;62.17;32.57;;;;;;;5.73;91.95;99424.38;5085344;28;20238;-77
2022/03/07 07:45:21;;;;;;;64.43;33.43;;;;;;;5.72;90.73;99412.19;5081129;28;20263;-81
2022/03/07 07:47:48;;;;;;;55.73;31.57;;;;;;;6.09;91.94;99429.28;5094372;28;20719;-78
2022/03/07 07:50:16;;;;;;;50.73;27.87;;;;;;;6.25;89.65;99426.59;5083078;28;20220;-78
2022/03/07 07:52:42;;;;;;;53.13;29.93;;;;;;;6.39;88.60;99426.72;5074729;28;20196;-79
2022/03/07 07:55:10;;;;;;;50.03;27.37;;;;;;;6.61;88.15;99428.59;5094878;28;20245;-80
2022/03/07 07:57:39;;;;;;;42.83;26.27;;;;;;;6.67;85.69;99427.09;5094157;28;20241;-73
2022/03/07 08:00:08;;;;;;;47.43;26.93;;;;;;;6.85;86.34;99425.81;5094092;28;20198;-73
2022/03/07 08:02:35;;;;;;;52.57;30.83;;;;;;;6.96;86.49;99432.53;5094079;28;20202;-79
2022/03/07 08:05:02;;;;;;;50.23;27.30;;;;;;;7.13;86.20;99444.63;5094833;28;20747;-81
2022/03/07 08:07:31;;;;;;;52.00;29.60;;;;;;;7.21;83.98;99439.28;5094365;28;20191;-83
2022/03/07 08:09:58;;;;;;;36.83;22.93;;;;;;;7.35;86.13;99443.81;5094145;28;20244;-79
2022/03/07 08:12:25;;;;;;;36.30;21.17;;;;;;;7.43;84.33;99443.75;5093912;28;20713;-82
2022/03/07 08:14:52;;;;;;;31.00;19.97;;;;;;;7.48;82.59;99451.97;5090465;28;20197;-79
2022/03/07 08:17:18;;;;;;;24.67;16.53;;;;;;;7.54;82.50;99443.31;5073646;28;20229;-80
2022/03/07 08:19:45;;;;;;;33.63;21.10;;;;;;;7.02;82.75;99445.84;5073942;28;20626;-78
2022/03/07 08:22:12;;;;;;;32.10;21.13;;;;;;;7.23;83.39;99447.88;5073892;28;20196;-78
2022/03/07 08:24:40;;;;;;;38.20;23.63;;;;;;;7.30;83.23;99440.88;5074063;28;20191;-79
2022/03/07 08:27:06;;;;;;;30.93;19.47;;;;;;;7.37;83.11;99444.44;5073445;28;20200;-79
2022/03/07 08:29:33;;;;;;;25.67;17.37;;;;;;;7.17;81.00;99440.63;5073457;28;20732;-78
2022/03/07 08:32:00;;;;;;;24.57;17.37;;;;;;;7.21;82.94;99432.19;5073219;28;20220;-79
2022/03/07 08:34:27;;;;;;;25.37;17.80;;;;;;;7.16;82.14;99417.88;5073323;28;20666;-78
2022/03/07 08:36:53;;;;;;;23.77;17.20;;;;;;;7.29;82.51;99433.94;5093055;28;20241;-79
2022/03/07 08:39:20;;;;;;;35.23;19.33;;;;;;;7.32;82.83;99433.59;5094097;28;20663;-77
2022/03/07 08:41:48;;;;;;;40.93;22.27;;;;;;;7.26;83.24;99448.34;5093286;28;20252;-80
2022/03/07 08:44:15;;;;;;;33.13;19.80;;;;;;;7.18;82.64;99444.94;5092557;28;20188;-79
2022/03/07 08:46:41;;;;;;;28.77;18.30;;;;;;;7.02;82.58;99445.03;5093742;28;20191;-78
2022/03/07 08:49:08;;;;;;;23.40;15.63;;;;;;;6.89;82.06;99447.41;5093453;28;20183;-79
2022/03/07 08:51:35;;;;;;;29.27;18.20;;;;;;;6.80;82.96;99443.16;5093141;28;20222;-77
2022/03/07 08:54:02;;;;;;;33.93;17.73;;;;;;;6.76;83.61;99437.44;5093328;28;20616;-78
2022/03/07 08:56:28;;;;;;;26.30;16.70;;;;;;;6.77;83.14;99443.53;5093146;28;20195;-77
2022/03/07 08:58:57;;;;;;;23.27;15.33;;;;;;;6.64;83.28;99437.97;5093412;28;20191;-79
2022/03/07 09:01:24;;;;;;;25.60;15.97;;;;;;;6.54;85.01;99435.56;5093006;28;20208;-80
2022/03/07 09:03:51;;;;;;;23.97;15.53;;;;;;;6.63;84.67;99431.06;5093057;28;20314;-76
2022/03/07 09:06:17;;;;;;;20.87;15.33;;;;;;;6.72;84.61;99424.75;5092946;28;20197;-78
2022/03/07 09:08:44;;;;;;;22.97;15.50;;;;;;;6.81;83.41;99429.81;5093252;28;20196;-77
2022/03/07 09:11:11;;;;;;;22.23;15.37;;;;;;;6.77;82.70;99435.63;5092850;28;20288;-79
2022/03/07 09:13:37;;;;;;;21.00;15.67;;;;;;;6.77;83.39;99433.78;5093499;28;20277;-81
2022/03/07 09:16:06;;;;;;;28.07;16.43;;;;;;;6.84;83.25;99433.91;5091198;28;20195;-81
2022/03/07 09:18:32;;;;;;;27.30;16.67;;;;;;;6.80;83.61;99428.16;5072643;28;20253;-80
2022/03/07 09:20:59;;;;;;;29.97;18.77;;;;;;;6.79;84.40;99436.25;5072429;28;20627;-83
2022/03/07 09:23:31;;;;;;;29.00;19.23;;;;;;;6.78;84.07;99437.25;5072566;28;20187;-77
2022/03/07 09:25:58;;;;;;;28.37;18.83;;;;;;;6.56;85.96;99440.66;5090319;28;20208;-72
2022/03/07 09:28:24;;;;;;;32.77;19.97;;;;;;;6.10;86.17;99392.22;5092883;28;20199;-76
2022/03/07 09:30:51;;;;;;;29.20;19.90;;;;;;;6.21;86.96;99439.28;5092736;28;20223;-73
2022/03/07 09:33:19;;;;;;;29.40;19.07;;;;;;;6.11;87.46;99436.03;5092750;28;20199;-70
2022/03/07 09:35:46;;;;;;;29.10;17.67;;;;;;;6.01;88.16;99430.16;5092520;28;20688;-73
2022/03/07 09:38:12;;;;;;;34.17;20.03;;;;;;;6.05;87.02;99425.34;5092372;28;20195;-71
2022/03/07 09:40:39;;;;;;;30.27;15.90;;;;;;;5.95;87.85;99430.00;5092520;28;20202;-74
2022/03/07 09:43:08;;;;;;;28.23;17.83;;;;;;;6.01;88.11;99424.88;5092595;28;20252;-73
2022/03/07 09:45:35;;;;;;;27.03;16.10;;;;;;;6.11;87.57;99419.38;5092083;28;20196;-72
2022/03/07 09:48:02;;;;;;;27.27;17.93;;;;;;;6.25;86.93;99423.97;5093128;28;20250;-70
2022/03/07 09:50:30;;;;;;;27.77;18.00;;;;;;;6.35;86.85;99424.59;5091957;28;20619;-71
2022/03/07 09:52:57;;;;;;;36.93;19.03;;;;;;;6.43;86.26;99424.56;5092230;28;20207;-69
2022/03/07 09:55:24;;;;;;;25.80;16.90;;;;;;;6.42;86.03;99407.09;5091975;28;20257;-69
2022/03/07 09:57:51;;;;;;;21.90;14.63;;;;;;;6.51;84.92;99427.16;5091834;28;20191;-69
2022/03/07 10:00:19;;;;;;;24.57;15.23;;;;;;;6.54;84.92;99429.47;5092487;28;20264;-70
2022/03/07 10:02:56;;;;;;;23.20;16.13;;;;;;;6.63;84.97;99417.88;5092051;28;20190;-70
2022/03/07 10:05:27;;;;;;;26.47;16.60;;;;;;;6.61;85.82;99419.88;5091969;28;20236;-71
2022/03/07 10:07:57;;;;;;;21.67;15.93;;;;;;;6.71;86.74;99417.81;5092282;28;20190;-69
2022/03/07 10:10:29;;;;;;;21.10;14.97;;;;;;;6.72;86.00;99415.00;5092416;28;20191;-69
2022/03/07 10:12:56;;;;;;;22.90;15.43;;;;;;;6.72;84.49;99420.28;5086657;28;20207;-69
2022/03/07 10:15:23;;;;;;;25.37;15.90;;;;;;;6.46;85.72;99417.13;5071101;28;20693;-69
2022/03/07 10:17:52;;;;;;;27.57;17.53;;;;;;;6.48;86.35;99423.03;5112663;28;20197;-69
2022/03/07 10:20:20;;;;;;;30.83;17.53;;;;;;;6.35;86.79;99421.94;5097226;28;20619;-69
2022/03/07 10:22:49;;;;;;;32.10;15.90;;;;;;;6.29;87.43;99414.72;5112436;28;20198;-69
2022/03/07 10:25:22;;;;;;;29.00;17.30;;;;;;;6.14;88.22;99411.16;5112396;28;20195;-69
2022/03/07 10:27:50;;;;;;;26.60;16.47;;;;;;;6.06;88.27;99408.53;5112695;28;20199;-70
2022/03/07 10:30:20;;;;;;;26.03;15.77;;;;;;;6.01;88.61;99402.94;5094554;28;20195;-69
2022/03/07 10:32:54;;;;;;;24.13;14.83;;;;;;;5.94;88.43;99401.97;5091531;28;20210;-69
2022/03/07 10:35:22;;;;;;;25.93;14.80;;;;;;;6.05;88.92;99407.72;5092152;28;20184;-68
2022/03/07 10:37:49;;;;;;;28.97;17.03;;;;;;;6.07;87.97;99400.47;5091755;28;20245;-69
2022/03/07 10:40:21;;;;;;;22.33;14.87;;;;;;;6.23;88.31;99402.22;5091331;28;20655;-69
2022/03/07 10:42:49;;;;;;;26.77;15.67;;;;;;;6.39;86.40;99391.59;5092027;28;20279;-69
2022/03/07 10:45:17;;;;;;;22.33;14.43;;;;;;;6.49;86.12;99392.22;5091582;28;20201;-69
2022/03/07 10:47:43;;;;;;;23.10;14.97;;;;;;;6.65;84.45;99397.41;5112314;28;20188;-68
2022/03/07 10:50:10;;;;;;;23.53;14.37;;;;;;;6.76;83.86;99397.84;5097274;28;20620;-69
2022/03/07 10:52:40;;;;;;;22.83;16.23;;;;;;;6.86;82.49;99394.97;5090443;28;20223;-69
2022/03/07 10:55:08;;;;;;;20.53;15.13;;;;;;;6.99;82.35;99397.84;5071712;28;20250;-69
2022/03/07 10:57:38;;;;;;;18.93;14.03;;;;;;;7.07;80.33;99397.81;5080266;28;20194;-69
2022/03/07 11:00:10;;;;;;;23.60;15.03;;;;;;;7.13;81.07;99378.59;5091261;28;20242;-69
2022/03/07 11:02:42;;;;;;;24.13;15.37;;;;;;;7.20;81.00;99390.09;5090649;28;20191;-69
2022/03/07 11:05:10;;;;;;;28.53;15.53;;;;;;;7.06;80.52;99385.59;5091186;28;20222;-69
2022/03/07 11:07:45;;;;;;;27.67;15.57;;;;;;;7.12;80.76;99384.88;5092298;28;20703;-69
2022/03/07 11:10:14;;;;;;;22.03;14.03;;;;;;;7.24;80.88;99378.19;5095722;28;20248;-70
2022/03/07 11:12:43;;;;;;;26.30;16.73;;;;;;;7.33;81.07;99362.09;5095319;28;20234;-70
2022/03/07 11:15:14;;;;;;;23.10;15.80;;;;;;;7.46;81.21;99372.03;5095671;28;20631;-70
2022/03/07 11:17:42;;;;;;;23.80;16.20;;;;;;;7.40;81.34;99341.06;5095438;28;20663;-70
2022/03/07 11:20:11;;;;;;;23.63;16.67;;;;;;;7.70;79.58;99379.75;5101478;28;20198;-69
2022/03/07 11:22:38;;;;;;;23.13;15.50;;;;;;;7.63;78.13;99378.84;5115918;28;20252;-69